sensor_id;sensor_type;location;lat;lon;timestamp;temperature;humidity
15178;DHT22;7689;53.612;-2.416;2023-02-28T00:02:17;5.60;99.90
15178;DHT22;7689;53.612;-2.416;2023-02-28T00:04:43;5.60;99.90
15178;DHT22;7689;53.612;-2.416;2023-02-28T00:07:09;5.60;99.90
15178;DHT22;7689;53.612;-2.416;2023-02-28T00:09:34;5.60;99.90
15178;DHT22;7689;53.612;-2.416;2023-02-28T00:12:00;5.60;99.90
15178;DHT22;7689;53.612;-2.416;2023-02-28T00:14:35;5.60;99.90
15178;DHT22;7689;53.612;-2.416;2023-02-28T00:17:01;5.60;99.90
15178;DHT22;7689;53.612;-2.416;2023-02-28T00:19:26;5.60;99.90
15178;DHT22;7689;53.612;-2.416;2023-02-28T00:21:52;5.60;99.90
15178;DHT22;7689;53.612;-2.416;2023-02-28T00:24:17;5.60;99.90
15178;DHT22;7689;53.612;-2.416;2023-02-28T00:26:43;5.60;99.90
15178;DHT22;7689;53.612;-2.416;2023-02-28T00:29:08;5.60;99.90
15178;DHT22;7689;53.612;-2.416;2023-02-28T00:31:34;5.60;99.90
15178;DHT22;7689;53.612;-2.416;2023-02-28T00:34:00;5.60;99.90
15178;DHT22;7689;53.612;-2.416;2023-02-28T00:36:25;5.60;99.90
15178;DHT22;7689;53.612;-2.416;2023-02-28T00:38:51;5.60;99.90
15178;DHT22;7689;53.612;-2.416;2023-02-28T00:41:17;5.60;99.90
15178;DHT22;7689;53.612;-2.416;2023-02-28T00:43:42;5.60;99.90
15178;DHT22;7689;53.612;-2.416;2023-02-28T00:46:08;5.60;99.90
15178;DHT22;7689;53.612;-2.416;2023-02-28T00:48:34;5.50;99.90
15178;DHT22;7689;53.612;-2.416;2023-02-28T00:50:59;5.50;99.90
15178;DHT22;7689;53.612;-2.416;2023-02-28T00:53:25;5.50;99.90
15178;DHT22;7689;53.612;-2.416;2023-02-28T00:55:51;5.50;99.90
15178;DHT22;7689;53.612;-2.416;2023-02-28T00:58:16;5.50;99.90
15178;DHT22;7689;53.612;-2.416;2023-02-28T01:00:42;5.50;99.90
15178;DHT22;7689;53.612;-2.416;2023-02-28T01:03:08;5.80;99.90
15178;DHT22;7689;53.612;-2.416;2023-02-28T01:05:33;5.40;99.90
15178;DHT22;7689;53.612;-2.416;2023-02-28T01:07:59;5.40;99.90
15178;DHT22;7689;53.612;-2.416;2023-02-28T01:10:24;5.40;99.90
15178;DHT22;7689;53.612;-2.416;2023-02-28T01:12:50;5.40;99.90
15178;DHT22;7689;53.612;-2.416;2023-02-28T01:15:15;5.50;99.90
15178;DHT22;7689;53.612;-2.416;2023-02-28T01:17:41;5.40;99.90
15178;DHT22;7689;53.612;-2.416;2023-02-28T01:20:07;5.40;99.90
15178;DHT22;7689;53.612;-2.416;2023-02-28T01:22:34;5.40;99.90
15178;DHT22;7689;53.612;-2.416;2023-02-28T01:24:59;5.40;99.90
15178;DHT22;7689;53.612;-2.416;2023-02-28T01:27:25;5.50;99.90
15178;DHT22;7689;53.612;-2.416;2023-02-28T01:29:51;5.50;99.90
15178;DHT22;7689;53.612;-2.416;2023-02-28T01:32:17;5.40;99.90
15178;DHT22;7689;53.612;-2.416;2023-02-28T01:34:42;5.40;99.90
15178;DHT22;7689;53.612;-2.416;2023-02-28T01:37:08;5.40;99.90
15178;DHT22;7689;53.612;-2.416;2023-02-28T01:39:34;5.30;99.90
15178;DHT22;7689;53.612;-2.416;2023-02-28T01:41:59;5.30;99.90
15178;DHT22;7689;53.612;-2.416;2023-02-28T01:47:08;5.30;99.90
15178;DHT22;7689;53.612;-2.416;2023-02-28T01:49:34;5.30;99.90
15178;DHT22;7689;53.612;-2.416;2023-02-28T01:51:59;5.30;99.90
15178;DHT22;7689;53.612;-2.416;2023-02-28T01:54:26;5.30;99.90
15178;DHT22;7689;53.612;-2.416;2023-02-28T01:57:11;5.30;99.90
15178;DHT22;7689;53.612;-2.416;2023-02-28T01:59:50;5.30;99.90
15178;DHT22;7689;53.612;-2.416;2023-02-28T02:02:18;5.30;99.90
15178;DHT22;7689;53.612;-2.416;2023-02-28T02:04:51;6.40;99.90
15178;DHT22;7689;53.612;-2.416;2023-02-28T02:07:19;5.40;99.90
15178;DHT22;7689;53.612;-2.416;2023-02-28T02:09:45;5.40;99.90
15178;DHT22;7689;53.612;-2.416;2023-02-28T02:12:15;5.30;99.90
15178;DHT22;7689;53.612;-2.416;2023-02-28T02:14:53;5.30;99.90
15178;DHT22;7689;53.612;-2.416;2023-02-28T02:17:39;5.30;99.90
15178;DHT22;7689;53.612;-2.416;2023-02-28T02:27:58;5.30;99.90
15178;DHT22;7689;53.612;-2.416;2023-02-28T02:41:16;5.30;99.90
15178;DHT22;7689;53.612;-2.416;2023-02-28T02:44:02;5.30;99.90
15178;DHT22;7689;53.612;-2.416;2023-02-28T02:46:32;5.40;99.90
15178;DHT22;7689;53.612;-2.416;2023-02-28T02:49:00;5.40;99.90
15178;DHT22;7689;53.612;-2.416;2023-02-28T02:51:26;5.40;99.90
15178;DHT22;7689;53.612;-2.416;2023-02-28T02:53:54;5.40;99.90
15178;DHT22;7689;53.612;-2.416;2023-02-28T02:56:21;5.40;99.90
15178;DHT22;7689;53.612;-2.416;2023-02-28T02:58:49;5.30;99.90
15178;DHT22;7689;53.612;-2.416;2023-02-28T03:01:18;5.30;99.90
15178;DHT22;7689;53.612;-2.416;2023-02-28T03:04:03;5.20;99.90
15178;DHT22;7689;53.612;-2.416;2023-02-28T03:06:29;5.10;99.90
15178;DHT22;7689;53.612;-2.416;2023-02-28T03:08:55;5.10;99.90
15178;DHT22;7689;53.612;-2.416;2023-02-28T03:11:20;5.10;99.90
15178;DHT22;7689;53.612;-2.416;2023-02-28T03:13:49;5.10;99.90
15178;DHT22;7689;53.612;-2.416;2023-02-28T03:21:32;5.10;99.90
15178;DHT22;7689;53.612;-2.416;2023-02-28T03:26:45;5.10;99.90
15178;DHT22;7689;53.612;-2.416;2023-02-28T03:29:20;5.00;99.90
15178;DHT22;7689;53.612;-2.416;2023-02-28T03:31:48;5.10;99.90
15178;DHT22;7689;53.612;-2.416;2023-02-28T03:34:23;5.00;99.90
15178;DHT22;7689;53.612;-2.416;2023-02-28T03:36:57;5.00;99.90
15178;DHT22;7689;53.612;-2.416;2023-02-28T03:39:31;5.00;99.90
15178;DHT22;7689;53.612;-2.416;2023-02-28T03:42:00;5.00;99.90
15178;DHT22;7689;53.612;-2.416;2023-02-28T03:44:30;4.80;99.90
15178;DHT22;7689;53.612;-2.416;2023-02-28T03:47:02;4.10;99.90
15178;DHT22;7689;53.612;-2.416;2023-02-28T03:49:33;4.80;99.90
15178;DHT22;7689;53.612;-2.416;2023-02-28T03:52:00;4.80;99.90
15178;DHT22;7689;53.612;-2.416;2023-02-28T03:54:28;4.80;99.90
15178;DHT22;7689;53.612;-2.416;2023-02-28T03:57:11;4.70;99.90
15178;DHT22;7689;53.612;-2.416;2023-02-28T03:59:39;4.70;99.90
15178;DHT22;7689;53.612;-2.416;2023-02-28T04:02:07;4.60;99.90
15178;DHT22;7689;53.612;-2.416;2023-02-28T04:04:33;4.60;99.90
15178;DHT22;7689;53.612;-2.416;2023-02-28T04:07:06;4.60;99.90
15178;DHT22;7689;53.612;-2.416;2023-02-28T04:09:32;4.70;99.90
15178;DHT22;7689;53.612;-2.416;2023-02-28T04:11:58;4.60;99.90
15178;DHT22;7689;53.612;-2.416;2023-02-28T04:14:24;4.70;99.90
15178;DHT22;7689;53.612;-2.416;2023-02-28T04:16:49;4.60;99.90
15178;DHT22;7689;53.612;-2.416;2023-02-28T04:19:16;4.70;99.90
15178;DHT22;7689;53.612;-2.416;2023-02-28T04:21:45;4.70;99.90
15178;DHT22;7689;53.612;-2.416;2023-02-28T04:24:13;4.70;99.90
15178;DHT22;7689;53.612;-2.416;2023-02-28T04:26:42;4.70;99.90
15178;DHT22;7689;53.612;-2.416;2023-02-28T04:29:09;4.70;99.90
15178;DHT22;7689;53.612;-2.416;2023-02-28T04:31:35;4.70;99.90
15178;DHT22;7689;53.612;-2.416;2023-02-28T04:34:01;4.80;99.90
15178;DHT22;7689;53.612;-2.416;2023-02-28T04:36:26;4.80;99.90
15178;DHT22;7689;53.612;-2.416;2023-02-28T04:38:52;4.80;99.90
15178;DHT22;7689;53.612;-2.416;2023-02-28T04:41:19;4.90;99.90
15178;DHT22;7689;53.612;-2.416;2023-02-28T04:43:45;4.90;99.90
15178;DHT22;7689;53.612;-2.416;2023-02-28T04:46:10;4.90;99.90
15178;DHT22;7689;53.612;-2.416;2023-02-28T04:48:37;4.90;99.90
15178;DHT22;7689;53.612;-2.416;2023-02-28T04:51:03;5.00;99.90
15178;DHT22;7689;53.612;-2.416;2023-02-28T04:53:29;5.00;99.90
15178;DHT22;7689;53.612;-2.416;2023-02-28T04:55:58;5.00;99.90
15178;DHT22;7689;53.612;-2.416;2023-02-28T04:58:23;5.00;99.90
15178;DHT22;7689;53.612;-2.416;2023-02-28T05:00:49;5.00;99.90
15178;DHT22;7689;53.612;-2.416;2023-02-28T05:03:15;5.00;99.90
15178;DHT22;7689;53.612;-2.416;2023-02-28T05:05:40;5.00;99.90
15178;DHT22;7689;53.612;-2.416;2023-02-28T05:08:06;4.90;99.90
15178;DHT22;7689;53.612;-2.416;2023-02-28T05:10:31;4.90;99.90
15178;DHT22;7689;53.612;-2.416;2023-02-28T05:12:57;4.90;99.90
15178;DHT22;7689;53.612;-2.416;2023-02-28T05:15:23;4.90;99.90
15178;DHT22;7689;53.612;-2.416;2023-02-28T05:17:48;4.90;99.90
15178;DHT22;7689;53.612;-2.416;2023-02-28T05:20:14;4.90;99.90
15178;DHT22;7689;53.612;-2.416;2023-02-28T05:22:40;4.90;99.90
15178;DHT22;7689;53.612;-2.416;2023-02-28T05:25:06;4.90;99.90
15178;DHT22;7689;53.612;-2.416;2023-02-28T05:27:32;4.90;99.90
15178;DHT22;7689;53.612;-2.416;2023-02-28T05:29:57;4.90;99.90
15178;DHT22;7689;53.612;-2.416;2023-02-28T05:32:24;4.90;99.90
15178;DHT22;7689;53.612;-2.416;2023-02-28T05:34:49;4.80;99.90
15178;DHT22;7689;53.612;-2.416;2023-02-28T05:37:15;4.80;99.90
15178;DHT22;7689;53.612;-2.416;2023-02-28T05:39:41;4.40;99.90
15178;DHT22;7689;53.612;-2.416;2023-02-28T05:42:07;4.80;99.90
15178;DHT22;7689;53.612;-2.416;2023-02-28T05:44:33;4.80;99.90
15178;DHT22;7689;53.612;-2.416;2023-02-28T05:46:58;4.80;99.90
15178;DHT22;7689;53.612;-2.416;2023-02-28T05:49:24;4.80;99.90
15178;DHT22;7689;53.612;-2.416;2023-02-28T05:51:49;4.70;99.90
15178;DHT22;7689;53.612;-2.416;2023-02-28T05:54:15;4.80;99.90
15178;DHT22;7689;53.612;-2.416;2023-02-28T05:56:40;4.70;99.90
15178;DHT22;7689;53.612;-2.416;2023-02-28T05:59:09;4.70;99.90
15178;DHT22;7689;53.612;-2.416;2023-02-28T06:04:00;4.70;99.90
15178;DHT22;7689;53.612;-2.416;2023-02-28T06:06:26;4.70;99.90
15178;DHT22;7689;53.612;-2.416;2023-02-28T06:08:52;4.70;99.90
15178;DHT22;7689;53.612;-2.416;2023-02-28T06:11:17;4.80;99.90
15178;DHT22;7689;53.612;-2.416;2023-02-28T06:13:45;4.70;99.90
15178;DHT22;7689;53.612;-2.416;2023-02-28T06:16:10;4.80;99.90
15178;DHT22;7689;53.612;-2.416;2023-02-28T06:18:36;4.70;99.90
15178;DHT22;7689;53.612;-2.416;2023-02-28T06:21:02;4.70;99.90
15178;DHT22;7689;53.612;-2.416;2023-02-28T06:23:27;4.70;99.90
15178;DHT22;7689;53.612;-2.416;2023-02-28T06:25:53;4.70;99.90
15178;DHT22;7689;53.612;-2.416;2023-02-28T06:28:21;5.10;99.90
15178;DHT22;7689;53.612;-2.416;2023-02-28T06:30:46;4.60;99.90
15178;DHT22;7689;53.612;-2.416;2023-02-28T06:33:12;4.60;99.90
15178;DHT22;7689;53.612;-2.416;2023-02-28T06:35:37;4.60;99.90
15178;DHT22;7689;53.612;-2.416;2023-02-28T06:38:03;4.60;99.90
15178;DHT22;7689;53.612;-2.416;2023-02-28T06:40:29;4.50;99.90
15178;DHT22;7689;53.612;-2.416;2023-02-28T06:42:57;4.50;99.90
15178;DHT22;7689;53.612;-2.416;2023-02-28T06:45:22;4.60;99.90
15178;DHT22;7689;53.612;-2.416;2023-02-28T06:47:48;4.50;99.90
15178;DHT22;7689;53.612;-2.416;2023-02-28T06:50:17;4.50;99.90
15178;DHT22;7689;53.612;-2.416;2023-02-28T06:52:45;4.50;99.90
15178;DHT22;7689;53.612;-2.416;2023-02-28T06:55:11;4.50;99.90
15178;DHT22;7689;53.612;-2.416;2023-02-28T06:57:37;4.50;99.90
15178;DHT22;7689;53.612;-2.416;2023-02-28T07:00:04;4.60;99.90
15178;DHT22;7689;53.612;-2.416;2023-02-28T07:02:30;4.60;99.90
15178;DHT22;7689;53.612;-2.416;2023-02-28T07:04:56;4.60;99.90
15178;DHT22;7689;53.612;-2.416;2023-02-28T07:07:22;4.60;99.90
15178;DHT22;7689;53.612;-2.416;2023-02-28T07:09:47;4.60;99.90
15178;DHT22;7689;53.612;-2.416;2023-02-28T07:12:13;4.60;99.90
15178;DHT22;7689;53.612;-2.416;2023-02-28T07:14:38;4.60;99.90
15178;DHT22;7689;53.612;-2.416;2023-02-28T07:17:06;4.60;99.90
15178;DHT22;7689;53.612;-2.416;2023-02-28T07:19:31;4.70;99.90
15178;DHT22;7689;53.612;-2.416;2023-02-28T07:21:57;4.70;99.90
15178;DHT22;7689;53.612;-2.416;2023-02-28T07:24:22;4.70;99.90
15178;DHT22;7689;53.612;-2.416;2023-02-28T07:26:51;4.70;99.90
15178;DHT22;7689;53.612;-2.416;2023-02-28T07:29:16;5.90;99.90
15178;DHT22;7689;53.612;-2.416;2023-02-28T07:31:42;4.60;99.90
15178;DHT22;7689;53.612;-2.416;2023-02-28T07:34:07;4.50;99.90
15178;DHT22;7689;53.612;-2.416;2023-02-28T07:36:33;4.50;99.90
15178;DHT22;7689;53.612;-2.416;2023-02-28T07:38:58;4.50;99.90
15178;DHT22;7689;53.612;-2.416;2023-02-28T07:41:24;4.40;99.90
15178;DHT22;7689;53.612;-2.416;2023-02-28T07:43:55;4.40;99.90
15178;DHT22;7689;53.612;-2.416;2023-02-28T07:46:22;4.40;99.90
15178;DHT22;7689;53.612;-2.416;2023-02-28T07:48:48;4.40;99.90
15178;DHT22;7689;53.612;-2.416;2023-02-28T07:51:13;4.40;99.90
15178;DHT22;7689;53.612;-2.416;2023-02-28T07:53:39;4.40;99.90
15178;DHT22;7689;53.612;-2.416;2023-02-28T07:56:05;4.40;99.90
15178;DHT22;7689;53.612;-2.416;2023-02-28T07:58:31;4.50;99.90
15178;DHT22;7689;53.612;-2.416;2023-02-28T08:00:56;4.60;99.90
15178;DHT22;7689;53.612;-2.416;2023-02-28T08:03:23;4.80;99.90
15178;DHT22;7689;53.612;-2.416;2023-02-28T08:05:48;4.90;99.90
15178;DHT22;7689;53.612;-2.416;2023-02-28T08:08:14;5.00;99.90
15178;DHT22;7689;53.612;-2.416;2023-02-28T08:10:40;5.20;99.90
15178;DHT22;7689;53.612;-2.416;2023-02-28T08:13:05;5.60;99.90
15178;DHT22;7689;53.612;-2.416;2023-02-28T08:15:31;5.60;99.90
15178;DHT22;7689;53.612;-2.416;2023-02-28T08:17:56;5.40;99.90
15178;DHT22;7689;53.612;-2.416;2023-02-28T08:20:22;5.40;99.90
15178;DHT22;7689;53.612;-2.416;2023-02-28T08:22:48;5.50;99.90
15178;DHT22;7689;53.612;-2.416;2023-02-28T08:25:13;6.30;99.90
15178;DHT22;7689;53.612;-2.416;2023-02-28T08:27:39;7.00;99.90
15178;DHT22;7689;53.612;-2.416;2023-02-28T08:30:05;7.70;99.90
15178;DHT22;7689;53.612;-2.416;2023-02-28T08:32:31;8.00;99.90
15178;DHT22;7689;53.612;-2.416;2023-02-28T08:34:57;7.90;99.90
15178;DHT22;7689;53.612;-2.416;2023-02-28T08:37:22;7.80;99.90
15178;DHT22;7689;53.612;-2.416;2023-02-28T08:39:48;7.70;99.90
15178;DHT22;7689;53.612;-2.416;2023-02-28T08:42:14;7.90;99.90
15178;DHT22;7689;53.612;-2.416;2023-02-28T08:44:39;7.40;99.90
15178;DHT22;7689;53.612;-2.416;2023-02-28T08:47:06;7.40;99.90
15178;DHT22;7689;53.612;-2.416;2023-02-28T08:49:31;7.00;99.90
15178;DHT22;7689;53.612;-2.416;2023-02-28T08:51:57;6.50;99.90
15178;DHT22;7689;53.612;-2.416;2023-02-28T08:54:23;6.30;99.90
15178;DHT22;7689;53.612;-2.416;2023-02-28T08:56:48;6.30;99.90
15178;DHT22;7689;53.612;-2.416;2023-02-28T08:59:14;5.90;99.90
15178;DHT22;7689;53.612;-2.416;2023-02-28T09:01:40;5.80;99.90
15178;DHT22;7689;53.612;-2.416;2023-02-28T09:04:07;5.70;99.90
15178;DHT22;7689;53.612;-2.416;2023-02-28T09:06:34;5.60;99.90
15178;DHT22;7689;53.612;-2.416;2023-02-28T09:08:59;5.60;99.90
15178;DHT22;7689;53.612;-2.416;2023-02-28T09:11:27;5.70;99.90
15178;DHT22;7689;53.612;-2.416;2023-02-28T09:13:52;5.80;99.90
15178;DHT22;7689;53.612;-2.416;2023-02-28T09:16:18;5.90;99.90
15178;DHT22;7689;53.612;-2.416;2023-02-28T09:18:44;6.10;99.90
15178;DHT22;7689;53.612;-2.416;2023-02-28T09:21:11;6.00;99.90
15178;DHT22;7689;53.612;-2.416;2023-02-28T09:23:39;6.00;99.90
15178;DHT22;7689;53.612;-2.416;2023-02-28T09:26:05;6.10;99.90
15178;DHT22;7689;53.612;-2.416;2023-02-28T09:28:31;6.00;99.90
15178;DHT22;7689;53.612;-2.416;2023-02-28T09:30:57;6.10;99.90
15178;DHT22;7689;53.612;-2.416;2023-02-28T09:33:24;6.10;99.90
15178;DHT22;7689;53.612;-2.416;2023-02-28T09:35:50;6.30;99.90
15178;DHT22;7689;53.612;-2.416;2023-02-28T09:38:16;6.20;99.90
15178;DHT22;7689;53.612;-2.416;2023-02-28T09:43:41;6.30;99.90
15178;DHT22;7689;53.612;-2.416;2023-02-28T09:46:14;6.40;99.90
15178;DHT22;7689;53.612;-2.416;2023-02-28T09:48:41;6.20;99.90
15178;DHT22;7689;53.612;-2.416;2023-02-28T09:53:52;6.20;99.90
15178;DHT22;7689;53.612;-2.416;2023-02-28T09:56:22;6.20;99.90
15178;DHT22;7689;53.612;-2.416;2023-02-28T09:58:59;6.30;99.90
15178;DHT22;7689;53.612;-2.416;2023-02-28T10:02:02;6.30;99.90
15178;DHT22;7689;53.612;-2.416;2023-02-28T10:06:49;6.20;99.90
15178;DHT22;7689;53.612;-2.416;2023-02-28T10:09:22;6.20;99.90
15178;DHT22;7689;53.612;-2.416;2023-02-28T10:11:50;6.30;99.90
15178;DHT22;7689;53.612;-2.416;2023-02-28T10:14:21;6.30;99.90
15178;DHT22;7689;53.612;-2.416;2023-02-28T10:16:50;6.40;99.90
15178;DHT22;7689;53.612;-2.416;2023-02-28T10:21:59;6.40;99.90
15178;DHT22;7689;53.612;-2.416;2023-02-28T10:24:30;6.60;99.90
15178;DHT22;7689;53.612;-2.416;2023-02-28T10:27:01;6.60;99.90
15178;DHT22;7689;53.612;-2.416;2023-02-28T10:29:28;6.70;99.90
15178;DHT22;7689;53.612;-2.416;2023-02-28T10:31:56;6.70;99.90
15178;DHT22;7689;53.612;-2.416;2023-02-28T10:34:22;6.80;99.90
15178;DHT22;7689;53.612;-2.416;2023-02-28T10:36:47;6.70;99.90
15178;DHT22;7689;53.612;-2.416;2023-02-28T10:41:58;6.70;99.90
15178;DHT22;7689;53.612;-2.416;2023-02-28T10:44:24;6.80;99.90
15178;DHT22;7689;53.612;-2.416;2023-02-28T10:46:49;6.80;99.90
15178;DHT22;7689;53.612;-2.416;2023-02-28T10:51:47;7.00;99.90
15178;DHT22;7689;53.612;-2.416;2023-02-28T10:54:15;7.00;99.90
15178;DHT22;7689;53.612;-2.416;2023-02-28T10:56:41;7.40;99.90
15178;DHT22;7689;53.612;-2.416;2023-02-28T11:01:51;7.20;99.90
15178;DHT22;7689;53.612;-2.416;2023-02-28T11:04:19;7.20;99.90
15178;DHT22;7689;53.612;-2.416;2023-02-28T11:06:47;7.20;99.90
15178;DHT22;7689;53.612;-2.416;2023-02-28T11:09:46;7.30;99.90
15178;DHT22;7689;53.612;-2.416;2023-02-28T11:12:05;7.20;99.90
15178;DHT22;7689;53.612;-2.416;2023-02-28T11:14:32;7.30;99.90
15178;DHT22;7689;53.612;-2.416;2023-02-28T11:17:02;7.50;99.90
15178;DHT22;7689;53.612;-2.416;2023-02-28T11:19:29;7.50;99.90
15178;DHT22;7689;53.612;-2.416;2023-02-28T11:21:58;7.90;99.90
15178;DHT22;7689;53.612;-2.416;2023-02-28T11:26:56;7.80;99.90
15178;DHT22;7689;53.612;-2.416;2023-02-28T11:29:25;7.70;99.90
